sensor_id;sensor_type;location;lat;lon;timestamp;P1;durP1;ratioP1;P2;durP2;ratioP2
58260;SDS011;44058;52.898;6.502;2022-10-16T00:01:15;5.13;;;2.00;;
58260;SDS011;44058;52.898;6.502;2022-10-16T00:03:41;7.53;;;2.28;;
58260;SDS011;44058;52.898;6.502;2022-10-16T00:06:09;5.43;;;2.17;;
58260;SDS011;44058;52.898;6.502;2022-10-16T00:08:36;5.20;;;2.20;;
58260;SDS011;44058;52.898;6.502;2022-10-16T00:11:04;7.22;;;2.17;;
58260;SDS011;44058;52.898;6.502;2022-10-16T00:13:36;6.95;;;1.98;;
58260;SDS011;44058;52.898;6.502;2022-10-16T00:18:30;6.63;;;2.05;;
58260;SDS011;44058;52.898;6.502;2022-10-16T00:21:01;4.85;;;2.00;;
58260;SDS011;44058;52.898;6.502;2022-10-16T00:23:28;6.38;;;2.00;;
58260;SDS011;44058;52.898;6.502;2022-10-16T00:25:55;5.15;;;1.73;;
58260;SDS011;44058;52.898;6.502;2022-10-16T00:28:24;4.75;;;2.10;;
58260;SDS011;44058;52.898;6.502;2022-10-16T00:30:50;4.07;;;1.80;;
58260;SDS011;44058;52.898;6.502;2022-10-16T00:33:16;6.53;;;2.17;;
58260;SDS011;44058;52.898;6.502;2022-10-16T00:35:41;4.32;;;1.70;;
58260;SDS011;44058;52.898;6.502;2022-10-16T00:38:08;4.50;;;1.67;;
58260;SDS011;44058;52.898;6.502;2022-10-16T00:40:34;3.60;;;1.75;;
58260;SDS011;44058;52.898;6.502;2022-10-16T00:42:59;4.93;;;1.75;;
58260;SDS011;44058;52.898;6.502;2022-10-16T00:45:25;5.10;;;1.80;;
58260;SDS011;44058;52.898;6.502;2022-10-16T00:47:51;3.65;;;1.65;;
58260;SDS011;44058;52.898;6.502;2022-10-16T00:50:28;6.88;;;1.90;;
58260;SDS011;44058;52.898;6.502;2022-10-16T00:52:57;3.88;;;1.70;;
58260;SDS011;44058;52.898;6.502;2022-10-16T00:55:25;5.60;;;1.85;;
58260;SDS011;44058;52.898;6.502;2022-10-16T00:57:53;4.22;;;1.77;;
58260;SDS011;44058;52.898;6.502;2022-10-16T01:00:23;9.27;;;2.03;;
58260;SDS011;44058;52.898;6.502;2022-10-16T01:02:53;6.13;;;1.70;;
58260;SDS011;44058;52.898;6.502;2022-10-16T01:05:19;3.97;;;1.80;;
58260;SDS011;44058;52.898;6.502;2022-10-16T01:10:27;3.78;;;1.50;;
58260;SDS011;44058;52.898;6.502;2022-10-16T01:12:59;4.82;;;1.70;;
58260;SDS011;44058;52.898;6.502;2022-10-16T01:15:54;7.40;;;1.90;;
58260;SDS011;44058;52.898;6.502;2022-10-16T01:18:34;7.18;;;1.90;;
58260;SDS011;44058;52.898;6.502;2022-10-16T01:21:08;7.00;;;2.03;;
58260;SDS011;44058;52.898;6.502;2022-10-16T01:28:57;5.97;;;2.00;;
58260;SDS011;44058;52.898;6.502;2022-10-16T01:31:34;4.00;;;2.08;;
58260;SDS011;44058;52.898;6.502;2022-10-16T01:34:03;3.88;;;1.63;;
58260;SDS011;44058;52.898;6.502;2022-10-16T01:36:37;7.28;;;2.00;;
58260;SDS011;44058;52.898;6.502;2022-10-16T01:39:09;3.90;;;1.60;;
58260;SDS011;44058;52.898;6.502;2022-10-16T01:41:38;5.45;;;2.13;;
58260;SDS011;44058;52.898;6.502;2022-10-16T01:44:13;3.22;;;1.58;;
58260;SDS011;44058;52.898;6.502;2022-10-16T01:46:46;4.75;;;1.70;;
58260;SDS011;44058;52.898;6.502;2022-10-16T01:49:14;3.85;;;1.70;;
58260;SDS011;44058;52.898;6.502;2022-10-16T01:51:43;3.95;;;2.00;;
58260;SDS011;44058;52.898;6.502;2022-10-16T01:54:12;5.78;;;1.40;;
58260;SDS011;44058;52.898;6.502;2022-10-16T01:56:40;2.95;;;1.40;;
58260;SDS011;44058;52.898;6.502;2022-10-16T01:59:11;4.93;;;1.73;;
58260;SDS011;44058;52.898;6.502;2022-10-16T02:01:40;2.80;;;1.40;;
58260;SDS011;44058;52.898;6.502;2022-10-16T02:04:18;6.18;;;1.58;;
58260;SDS011;44058;52.898;6.502;2022-10-16T02:06:49;4.18;;;1.67;;
58260;SDS011;44058;52.898;6.502;2022-10-16T02:09:15;2.55;;;1.55;;
58260;SDS011;44058;52.898;6.502;2022-10-16T02:11:42;4.75;;;1.98;;
58260;SDS011;44058;52.898;6.502;2022-10-16T02:14:08;4.53;;;1.95;;
58260;SDS011;44058;52.898;6.502;2022-10-16T02:16:35;5.22;;;1.95;;
58260;SDS011;44058;52.898;6.502;2022-10-16T02:19:06;6.15;;;1.83;;
58260;SDS011;44058;52.898;6.502;2022-10-16T02:24:39;3.92;;;1.73;;
58260;SDS011;44058;52.898;6.502;2022-10-16T02:27:09;5.15;;;1.88;;
58260;SDS011;44058;52.898;6.502;2022-10-16T02:29:39;3.80;;;1.65;;
58260;SDS011;44058;52.898;6.502;2022-10-16T02:32:10;6.15;;;2.03;;
58260;SDS011;44058;52.898;6.502;2022-10-16T02:34:43;2.97;;;1.70;;
58260;SDS011;44058;52.898;6.502;2022-10-16T02:37:10;3.13;;;1.52;;
58260;SDS011;44058;52.898;6.502;2022-10-16T02:39:36;4.20;;;1.90;;
58260;SDS011;44058;52.898;6.502;2022-10-16T02:42:03;5.10;;;1.90;;
58260;SDS011;44058;52.898;6.502;2022-10-16T02:44:29;3.67;;;1.80;;
58260;SDS011;44058;52.898;6.502;2022-10-16T02:46:55;3.28;;;1.60;;
58260;SDS011;44058;52.898;6.502;2022-10-16T02:49:20;3.00;;;1.73;;
58260;SDS011;44058;52.898;6.502;2022-10-16T02:51:46;2.55;;;1.70;;
58260;SDS011;44058;52.898;6.502;2022-10-16T02:54:12;4.00;;;2.15;;
58260;SDS011;44058;52.898;6.502;2022-10-16T02:56:38;3.10;;;1.85;;
58260;SDS011;44058;52.898;6.502;2022-10-16T02:59:03;5.25;;;1.88;;
58260;SDS011;44058;52.898;6.502;2022-10-16T03:01:29;4.97;;;2.13;;
58260;SDS011;44058;52.898;6.502;2022-10-16T03:03:55;2.28;;;1.60;;
58260;SDS011;44058;52.898;6.502;2022-10-16T03:06:21;3.13;;;1.77;;
58260;SDS011;44058;52.898;6.502;2022-10-16T03:08:46;4.28;;;2.20;;
58260;SDS011;44058;52.898;6.502;2022-10-16T03:11:12;4.90;;;2.20;;
58260;SDS011;44058;52.898;6.502;2022-10-16T03:13:38;4.60;;;1.95;;
58260;SDS011;44058;52.898;6.502;2022-10-16T03:16:03;4.45;;;1.80;;
58260;SDS011;44058;52.898;6.502;2022-10-16T03:18:29;5.28;;;2.10;;
58260;SDS011;44058;52.898;6.502;2022-10-16T03:20:55;3.60;;;1.90;;
58260;SDS011;44058;52.898;6.502;2022-10-16T03:23:21;6.22;;;2.20;;
58260;SDS011;44058;52.898;6.502;2022-10-16T03:25:46;3.92;;;2.15;;
58260;SDS011;44058;52.898;6.502;2022-10-16T03:28:12;4.63;;;1.70;;
58260;SDS011;44058;52.898;6.502;2022-10-16T03:30:38;2.97;;;1.85;;
58260;SDS011;44058;52.898;6.502;2022-10-16T03:33:05;2.38;;;1.50;;
58260;SDS011;44058;52.898;6.502;2022-10-16T03:35:31;4.70;;;1.88;;
58260;SDS011;44058;52.898;6.502;2022-10-16T03:37:57;3.05;;;1.70;;
58260;SDS011;44058;52.898;6.502;2022-10-16T03:40:24;5.57;;;1.80;;
58260;SDS011;44058;52.898;6.502;2022-10-16T03:42:50;2.28;;;1.70;;
58260;SDS011;44058;52.898;6.502;2022-10-16T03:45:16;6.63;;;2.20;;
58260;SDS011;44058;52.898;6.502;2022-10-16T03:47:42;4.32;;;1.80;;
58260;SDS011;44058;52.898;6.502;2022-10-16T03:50:08;3.45;;;2.20;;
58260;SDS011;44058;52.898;6.502;2022-10-16T03:52:34;3.88;;;2.03;;
58260;SDS011;44058;52.898;6.502;2022-10-16T03:55:00;3.90;;;1.83;;
58260;SDS011;44058;52.898;6.502;2022-10-16T03:57:25;2.67;;;1.80;;
58260;SDS011;44058;52.898;6.502;2022-10-16T03:59:51;3.92;;;1.85;;
58260;SDS011;44058;52.898;6.502;2022-10-16T04:02:17;2.63;;;1.80;;
58260;SDS011;44058;52.898;6.502;2022-10-16T04:04:42;3.47;;;1.70;;
58260;SDS011;44058;52.898;6.502;2022-10-16T04:07:08;4.15;;;2.13;;
58260;SDS011;44058;52.898;6.502;2022-10-16T04:09:34;3.45;;;2.05;;
58260;SDS011;44058;52.898;6.502;2022-10-16T04:11:59;3.28;;;2.03;;
58260;SDS011;44058;52.898;6.502;2022-10-16T04:14:25;3.55;;;2.08;;
58260;SDS011;44058;52.898;6.502;2022-10-16T04:16:51;5.35;;;2.17;;
58260;SDS011;44058;52.898;6.502;2022-10-16T04:19:16;5.03;;;2.35;;
58260;SDS011;44058;52.898;6.502;2022-10-16T04:21:42;4.90;;;2.33;;
58260;SDS011;44058;52.898;6.502;2022-10-16T04:24:08;3.30;;;2.25;;
58260;SDS011;44058;52.898;6.502;2022-10-16T04:26:33;4.40;;;2.28;;
58260;SDS011;44058;52.898;6.502;2022-10-16T04:28:59;5.25;;;2.40;;
58260;SDS011;44058;52.898;6.502;2022-10-16T04:31:25;5.38;;;2.20;;
58260;SDS011;44058;52.898;6.502;2022-10-16T04:33:50;3.97;;;2.40;;
58260;SDS011;44058;52.898;6.502;2022-10-16T04:36:16;4.00;;;2.30;;
58260;SDS011;44058;52.898;6.502;2022-10-16T04:38:42;3.00;;;2.20;;
58260;SDS011;44058;52.898;6.502;2022-10-16T04:41:08;3.67;;;2.53;;
58260;SDS011;44058;52.898;6.502;2022-10-16T04:43:34;3.13;;;2.67;;
58260;SDS011;44058;52.898;6.502;2022-10-16T04:46:00;2.92;;;2.33;;
58260;SDS011;44058;52.898;6.502;2022-10-16T04:48:27;4.10;;;2.15;;
58260;SDS011;44058;52.898;6.502;2022-10-16T04:50:52;4.20;;;2.42;;
58260;SDS011;44058;52.898;6.502;2022-10-16T04:53:18;4.20;;;2.40;;
58260;SDS011;44058;52.898;6.502;2022-10-16T04:55:44;4.32;;;2.30;;
58260;SDS011;44058;52.898;6.502;2022-10-16T04:58:09;5.05;;;2.58;;
58260;SDS011;44058;52.898;6.502;2022-10-16T05:00:35;4.82;;;2.67;;
58260;SDS011;44058;52.898;6.502;2022-10-16T05:03:01;5.00;;;2.60;;
58260;SDS011;44058;52.898;6.502;2022-10-16T05:05:30;3.05;;;2.40;;
58260;SDS011;44058;52.898;6.502;2022-10-16T05:07:56;4.43;;;2.70;;
58260;SDS011;44058;52.898;6.502;2022-10-16T05:10:22;3.60;;;2.42;;
58260;SDS011;44058;52.898;6.502;2022-10-16T05:12:48;6.72;;;2.83;;
58260;SDS011;44058;52.898;6.502;2022-10-16T05:15:13;3.15;;;2.70;;
58260;SDS011;44058;52.898;6.502;2022-10-16T05:17:39;5.07;;;2.78;;
58260;SDS011;44058;52.898;6.502;2022-10-16T05:20:05;3.90;;;2.30;;
58260;SDS011;44058;52.898;6.502;2022-10-16T05:22:31;4.20;;;2.78;;
58260;SDS011;44058;52.898;6.502;2022-10-16T05:24:57;2.55;;;2.35;;
58260;SDS011;44058;52.898;6.502;2022-10-16T05:27:22;6.60;;;2.83;;
58260;SDS011;44058;52.898;6.502;2022-10-16T05:29:48;3.00;;;2.70;;
58260;SDS011;44058;52.898;6.502;2022-10-16T05:32:14;2.78;;;2.45;;
58260;SDS011;44058;52.898;6.502;2022-10-16T05:34:42;4.50;;;2.53;;
58260;SDS011;44058;52.898;6.502;2022-10-16T05:37:08;4.78;;;2.90;;
58260;SDS011;44058;52.898;6.502;2022-10-16T05:39:34;5.30;;;2.40;;
58260;SDS011;44058;52.898;6.502;2022-10-16T05:42:00;7.68;;;2.88;;
58260;SDS011;44058;52.898;6.502;2022-10-16T05:44:26;7.28;;;2.55;;
58260;SDS011;44058;52.898;6.502;2022-10-16T05:46:51;3.33;;;2.58;;
58260;SDS011;44058;52.898;6.502;2022-10-16T05:49:17;5.35;;;3.00;;
58260;SDS011;44058;52.898;6.502;2022-10-16T05:51:43;5.28;;;2.72;;
58260;SDS011;44058;52.898;6.502;2022-10-16T05:54:09;4.55;;;2.83;;
58260;SDS011;44058;52.898;6.502;2022-10-16T05:56:34;3.88;;;2.70;;
58260;SDS011;44058;52.898;6.502;2022-10-16T05:59:00;5.25;;;2.97;;
58260;SDS011;44058;52.898;6.502;2022-10-16T06:01:26;5.03;;;2.60;;
58260;SDS011;44058;52.898;6.502;2022-10-16T06:03:52;5.00;;;2.75;;
58260;SDS011;44058;52.898;6.502;2022-10-16T06:06:18;4.10;;;2.70;;
58260;SDS011;44058;52.898;6.502;2022-10-16T06:08:46;4.50;;;2.60;;
58260;SDS011;44058;52.898;6.502;2022-10-16T06:11:17;5.47;;;2.88;;
58260;SDS011;44058;52.898;6.502;2022-10-16T06:13:53;6.03;;;3.00;;
58260;SDS011;44058;52.898;6.502;2022-10-16T06:16:21;4.05;;;2.92;;
58260;SDS011;44058;52.898;6.502;2022-10-16T06:18:50;3.20;;;2.78;;
58260;SDS011;44058;52.898;6.502;2022-10-16T06:21:17;4.03;;;2.65;;
58260;SDS011;44058;52.898;6.502;2022-10-16T06:23:49;5.10;;;2.83;;
58260;SDS011;44058;52.898;6.502;2022-10-16T06:26:16;5.47;;;2.83;;
58260;SDS011;44058;52.898;6.502;2022-10-16T06:28:44;3.92;;;2.60;;
58260;SDS011;44058;52.898;6.502;2022-10-16T06:31:11;4.38;;;2.75;;
58260;SDS011;44058;52.898;6.502;2022-10-16T06:33:37;3.85;;;3.00;;
58260;SDS011;44058;52.898;6.502;2022-10-16T06:36:08;3.55;;;2.38;;
58260;SDS011;44058;52.898;6.502;2022-10-16T06:38:36;2.85;;;2.53;;
58260;SDS011;44058;52.898;6.502;2022-10-16T06:41:03;3.40;;;2.63;;
58260;SDS011;44058;52.898;6.502;2022-10-16T06:43:31;2.72;;;2.42;;
58260;SDS011;44058;52.898;6.502;2022-10-16T06:45:58;4.80;;;2.65;;
58260;SDS011;44058;52.898;6.502;2022-10-16T06:48:25;4.70;;;2.55;;
58260;SDS011;44058;52.898;6.502;2022-10-16T06:51:02;4.68;;;2.78;;
58260;SDS011;44058;52.898;6.502;2022-10-16T06:53:36;4.68;;;2.78;;
58260;SDS011;44058;52.898;6.502;2022-10-16T06:56:10;4.68;;;2.50;;
58260;SDS011;44058;52.898;6.502;2022-10-16T06:58:38;4.05;;;2.17;;
58260;SDS011;44058;52.898;6.502;2022-10-16T07:01:04;3.50;;;2.25;;
58260;SDS011;44058;52.898;6.502;2022-10-16T07:03:31;3.83;;;2.30;;
58260;SDS011;44058;52.898;6.502;2022-10-16T07:05:57;5.65;;;2.60;;
58260;SDS011;44058;52.898;6.502;2022-10-16T07:08:28;3.30;;;2.20;;
58260;SDS011;44058;52.898;6.502;2022-10-16T07:11:03;3.85;;;2.47;;
58260;SDS011;44058;52.898;6.502;2022-10-16T07:13:34;4.28;;;2.38;;
58260;SDS011;44058;52.898;6.502;2022-10-16T07:16:04;3.90;;;2.10;;
58260;SDS011;44058;52.898;6.502;2022-10-16T07:18:44;4.38;;;2.28;;
58260;SDS011;44058;52.898;6.502;2022-10-16T07:21:12;4.97;;;2.33;;
58260;SDS011;44058;52.898;6.502;2022-10-16T07:26:09;3.97;;;2.22;;
58260;SDS011;44058;52.898;6.502;2022-10-16T07:28:35;5.50;;;2.08;;
58260;SDS011;44058;52.898;6.502;2022-10-16T07:31:05;6.32;;;2.47;;
58260;SDS011;44058;52.898;6.502;2022-10-16T07:33:33;3.58;;;2.40;;
58260;SDS011;44058;52.898;6.502;2022-10-16T07:36:00;4.18;;;2.17;;
58260;SDS011;44058;52.898;6.502;2022-10-16T07:38:26;4.60;;;2.42;;
58260;SDS011;44058;52.898;6.502;2022-10-16T07:40:58;4.13;;;2.00;;
58260;SDS011;44058;52.898;6.502;2022-10-16T07:43:25;3.65;;;2.17;;
58260;SDS011;44058;52.898;6.502;2022-10-16T07:45:52;6.00;;;2.22;;
58260;SDS011;44058;52.898;6.502;2022-10-16T07:48:19;4.28;;;1.90;;
58260;SDS011;44058;52.898;6.502;2022-10-16T07:50:45;3.85;;;2.00;;
58260;SDS011;44058;52.898;6.502;2022-10-16T07:53:10;3.30;;;1.80;;
58260;SDS011;44058;52.898;6.502;2022-10-16T07:55:36;4.47;;;2.03;;
58260;SDS011;44058;52.898;6.502;2022-10-16T07:58:03;3.30;;;1.75;;
58260;SDS011;44058;52.898;6.502;2022-10-16T08:00:38;3.80;;;1.30;;
58260;SDS011;44058;52.898;6.502;2022-10-16T08:03:03;3.85;;;1.60;;
58260;SDS011;44058;52.898;6.502;2022-10-16T08:05:30;4.38;;;1.55;;
58260;SDS011;44058;52.898;6.502;2022-10-16T08:07:58;3.95;;;1.40;;
58260;SDS011;44058;52.898;6.502;2022-10-16T08:10:25;1.80;;;1.25;;
58260;SDS011;44058;52.898;6.502;2022-10-16T08:12:52;3.75;;;1.70;;
58260;SDS011;44058;52.898;6.502;2022-10-16T08:15:18;3.08;;;1.50;;
58260;SDS011;44058;52.898;6.502;2022-10-16T08:17:53;3.92;;;1.50;;
58260;SDS011;44058;52.898;6.502;2022-10-16T08:20:20;2.53;;;1.23;;
58260;SDS011;44058;52.898;6.502;2022-10-16T08:22:46;2.53;;;1.30;;
58260;SDS011;44058;52.898;6.502;2022-10-16T08:25:11;4.25;;;1.20;;
58260;SDS011;44058;52.898;6.502;2022-10-16T08:27:37;3.78;;;1.40;;
58260;SDS011;44058;52.898;6.502;2022-10-16T08:30:03;4.28;;;1.20;;
58260;SDS011;44058;52.898;6.502;2022-10-16T08:32:29;2.38;;;1.20;;
58260;SDS011;44058;52.898;6.502;2022-10-16T08:34:55;3.15;;;1.10;;
58260;SDS011;44058;52.898;6.502;2022-10-16T08:37:20;1.30;;;0.98;;
58260;SDS011;44058;52.898;6.502;2022-10-16T08:39:46;4.68;;;1.40;;
58260;SDS011;44058;52.898;6.502;2022-10-16T08:45:15;3.55;;;1.10;;
58260;SDS011;44058;52.898;6.502;2022-10-16T08:50:54;2.45;;;1.30;;
58260;SDS011;44058;52.898;6.502;2022-10-16T08:53:23;3.45;;;1.60;;
58260;SDS011;44058;52.898;6.502;2022-10-16T08:56:01;4.88;;;1.80;;
58260;SDS011;44058;52.898;6.502;2022-10-16T08:58:31;5.35;;;1.73;;
58260;SDS011;44058;52.898;6.502;2022-10-16T09:00:58;6.03;;;1.80;;
58260;SDS011;44058;52.898;6.502;2022-10-16T09:11:47;5.68;;;2.40;;
58260;SDS011;44058;52.898;6.502;2022-10-16T09:14:50;4.78;;;1.70;;
58260;SDS011;44058;52.898;6.502;2022-10-16T09:20:13;7.32;;;1.77;;
58260;SDS011;44058;52.898;6.502;2022-10-16T09:22:44;5.18;;;2.22;;
58260;SDS011;44058;52.898;6.502;2022-10-16T09:25:11;6.70;;;2.20;;
58260;SDS011;44058;52.898;6.502;2022-10-16T09:27:38;6.35;;;1.92;;
58260;SDS011;44058;52.898;6.502;2022-10-16T09:30:15;7.47;;;2.03;;
58260;SDS011;44058;52.898;6.502;2022-10-16T09:32:43;6.65;;;2.13;;
58260;SDS011;44058;52.898;6.502;2022-10-16T09:35:16;7.47;;;2.35;;
58260;SDS011;44058;52.898;6.502;2022-10-16T09:37:45;5.13;;;1.77;;
58260;SDS011;44058;52.898;6.502;2022-10-16T09:40:23;7.43;;;2.00;;
58260;SDS011;44058;52.898;6.502;2022-10-16T09:43:16;5.13;;;1.75;;
58260;SDS011;44058;52.898;6.502;2022-10-16T09:45:56;7.50;;;2.33;;
58260;SDS011;44058;52.898;6.502;2022-10-16T09:48:25;6.13;;;2.13;;
58260;SDS011;44058;52.898;6.502;2022-10-16T09:52:02;6.85;;;1.73;;
58260;SDS011;44058;52.898;6.502;2022-10-16T09:54:13;5.85;;;2.50;;
58260;SDS011;44058;52.898;6.502;2022-10-16T09:56:40;4.65;;;1.98;;
58260;SDS011;44058;52.898;6.502;2022-10-16T09:59:13;7.35;;;2.25;;
58260;SDS011;44058;52.898;6.502;2022-10-16T10:01:48;5.72;;;1.80;;
58260;SDS011;44058;52.898;6.502;2022-10-16T10:04:18;9.93;;;2.20;;
58260;SDS011;44058;52.898;6.502;2022-10-16T10:09:26;7.63;;;1.83;;
58260;SDS011;44058;52.898;6.502;2022-10-16T10:11:56;6.72;;;1.92;;
58260;SDS011;44058;52.898;6.502;2022-10-16T10:22:22;8.85;;;2.25;;
58260;SDS011;44058;52.898;6.502;2022-10-16T10:24:59;5.95;;;1.55;;
58260;SDS011;44058;52.898;6.502;2022-10-16T10:27:53;9.00;;;2.30;;
58260;SDS011;44058;52.898;6.502;2022-10-16T10:30:47;7.32;;;2.00;;
58260;SDS011;44058;52.898;6.502;2022-10-16T10:33:31;6.25;;;2.08;;
58260;SDS011;44058;52.898;6.502;2022-10-16T10:47:24;10.02;;;2.13;;
58260;SDS011;44058;52.898;6.502;2022-10-16T10:50:07;7.70;;;2.33;;
58260;SDS011;44058;52.898;6.502;2022-10-16T10:55:31;7.47;;;2.28;;
58260;SDS011;44058;52.898;6.502;2022-10-16T10:58:18;9.63;;;2.30;;
58260;SDS011;44058;52.898;6.502;2022-10-16T11:01:16;6.40;;;2.00;;
58260;SDS011;44058;52.898;6.502;2022-10-16T11:06:45;7.22;;;2.20;;
58260;SDS011;44058;52.898;6.502;2022-10-16T11:09:27;7.28;;;2.20;;
58260;SDS011;44058;52.898;6.502;2022-10-16T11:12:00;10.95;;;2.58;;
58260;SDS011;44058;52.898;6.502;2022-10-16T11:17:16;7.50;;;2.47;;
58260;SDS011;44058;52.898;6.502;2022-10-16T11:19:51;11.60;;;2.60;;
58260;SDS011;44058;52.898;6.502;2022-10-16T11:22:38;8.63;;;2.20;;
58260;SDS011;44058;52.898;6.502;2022-10-16T11:25:13;10.38;;;2.55;;
58260;SDS011;44058;52.898;6.502;2022-10-16T11:28:02;8.20;;;2.30;;
58260;SDS011;44058;52.898;6.502;2022-10-16T11:38:45;10.88;;;2.22;;
58260;SDS011;44058;52.898;6.502;2022-10-16T11:46:25;9.38;;;2.30;;
58260;SDS011;44058;52.898;6.502;2022-10-16T11:48:57;4.88;;;1.70;;
58260;SDS011;44058;52.898;6.502;2022-10-16T11:51:43;5.55;;;1.98;;
58260;SDS011;44058;52.898;6.502;2022-10-16T11:54:34;8.38;;;2.13;;
58260;SDS011;44058;52.898;6.502;2022-10-16T11:57:17;7.75;;;2.15;;
58260;SDS011;44058;52.898;6.502;2022-10-16T12:02:48;8.02;;;2.00;;
58260;SDS011;44058;52.898;6.502;2022-10-16T12:08:44;9.70;;;1.98;;
58260;SDS011;44058;52.898;6.502;2022-10-16T12:13:52;8.82;;;2.30;;
58260;SDS011;44058;52.898;6.502;2022-10-16T12:19:26;12.20;;;2.15;;
58260;SDS011;44058;52.898;6.502;2022-10-16T12:24:37;5.95;;;2.15;;
58260;SDS011;44058;52.898;6.502;2022-10-16T12:27:06;6.47;;;2.08;;
58260;SDS011;44058;52.898;6.502;2022-10-16T12:29:56;9.10;;;2.65;;
58260;SDS011;44058;52.898;6.502;2022-10-16T12:32:35;7.75;;;2.00;;
58260;SDS011;44058;52.898;6.502;2022-10-16T12:35:04;12.13;;;2.55;;
58260;SDS011;44058;52.898;6.502;2022-10-16T12:37:42;8.15;;;2.20;;
58260;SDS011;44058;52.898;6.502;2022-10-16T12:40:12;8.15;;;2.08;;
58260;SDS011;44058;52.898;6.502;2022-10-16T12:42:41;8.07;;;2.25;;
58260;SDS011;44058;52.898;6.502;2022-10-16T12:45:23;8.70;;;2.13;;
58260;SDS011;44058;52.898;6.502;2022-10-16T12:47:52;6.60;;;2.15;;
58260;SDS011;44058;52.898;6.502;2022-10-16T12:50:30;7.63;;;1.58;;
58260;SDS011;44058;52.898;6.502;2022-10-16T12:53:02;8.02;;;2.22;;
58260;SDS011;44058;52.898;6.502;2022-10-16T12:55:42;7.43;;;1.60;;
58260;SDS011;44058;52.898;6.502;2022-10-16T12:58:36;8.43;;;2.38;;
58260;SDS011;44058;52.898;6.502;2022-10-16T13:12:26;9.48;;;2.13;;
58260;SDS011;44058;52.898;6.502;2022-10-16T13:23:23;6.85;;;1.83;;
58260;SDS011;44058;52.898;6.502;2022-10-16T13:26:31;9.63;;;2.30;;
58260;SDS011;44058;52.898;6.502;2022-10-16T13:29:05;8.60;;;2.30;;
58260;SDS011;44058;52.898;6.502;2022-10-16T13:31:33;9.98;;;2.05;;
58260;SDS011;44058;52.898;6.502;2022-10-16T13:33:59;11.60;;;2.42;;
58260;SDS011;44058;52.898;6.502;2022-10-16T13:36:27;10.15;;;2.20;;
58260;SDS011;44058;52.898;6.502;2022-10-16T13:39:13;6.97;;;2.13;;
58260;SDS011;44058;52.898;6.502;2022-10-16T13:42:03;8.93;;;2.05;;
58260;SDS011;44058;52.898;6.502;2022-10-16T13:44:52;11.82;;;2.45;;
58260;SDS011;44058;52.898;6.502;2022-10-16T13:47:25;7.78;;;1.88;;
58260;SDS011;44058;52.898;6.502;2022-10-16T13:50:00;9.93;;;2.22;;
58260;SDS011;44058;52.898;6.502;2022-10-16T13:52:27;8.35;;;2.08;;
58260;SDS011;44058;52.898;6.502;2022-10-16T13:54:53;7.25;;;1.95;;
58260;SDS011;44058;52.898;6.502;2022-10-16T13:57:21;9.82;;;2.10;;
58260;SDS011;44058;52.898;6.502;2022-10-16T13:59:50;10.52;;;4.13;;
58260;SDS011;44058;52.898;6.502;2022-10-16T14:02:35;13.15;;;3.28;;
58260;SDS011;44058;52.898;6.502;2022-10-16T14:07:34;8.50;;;2.47;;
58260;SDS011;44058;52.898;6.502;2022-10-16T14:10:05;7.90;;;2.30;;
58260;SDS011;44058;52.898;6.502;2022-10-16T14:12:43;9.70;;;2.25;;
58260;SDS011;44058;52.898;6.502;2022-10-16T14:15:18;12.80;;;2.58;;
58260;SDS011;44058;52.898;6.502;2022-10-16T14:17:45;10.07;;;2.63;;
58260;SDS011;44058;52.898;6.502;2022-10-16T14:20:15;10.93;;;2.30;;
58260;SDS011;44058;52.898;6.502;2022-10-16T14:22:41;11.35;;;2.00;;
58260;SDS011;44058;52.898;6.502;2022-10-16T14:25:21;9.30;;;2.35;;
58260;SDS011;44058;52.898;6.502;2022-10-16T14:30:48;10.55;;;2.65;;
58260;SDS011;44058;52.898;6.502;2022-10-16T14:33:30;10.70;;;2.53;;
58260;SDS011;44058;52.898;6.502;2022-10-16T14:36:21;10.98;;;2.70;;
58260;SDS011;44058;52.898;6.502;2022-10-16T14:38:57;7.85;;;2.40;;
58260;SDS011;44058;52.898;6.502;2022-10-16T14:41:30;9.77;;;2.53;;
58260;SDS011;44058;52.898;6.502;2022-10-16T14:44:06;10.60;;;2.42;;
58260;SDS011;44058;52.898;6.502;2022-10-16T14:46:36;11.45;;;2.67;;
58260;SDS011;44058;52.898;6.502;2022-10-16T14:49:13;9.98;;;2.88;;
58260;SDS011;44058;52.898;6.502;2022-10-16T14:51:43;10.90;;;2.25;;
58260;SDS011;44058;52.898;6.502;2022-10-16T14:54:10;11.00;;;2.47;;
58260;SDS011;44058;52.898;6.502;2022-10-16T14:56:54;10.30;;;2.13;;
58260;SDS011;44058;52.898;6.502;2022-10-16T14:59:27;9.85;;;2.65;;
58260;SDS011;44058;52.898;6.502;2022-10-16T15:01:59;9.07;;;2.63;;
58260;SDS011;44058;52.898;6.502;2022-10-16T15:04:25;12.40;;;2.83;;
58260;SDS011;44058;52.898;6.502;2022-10-16T15:06:51;10.75;;;2.40;;
58260;SDS011;44058;52.898;6.502;2022-10-16T15:09:17;13.23;;;3.13;;
58260;SDS011;44058;52.898;6.502;2022-10-16T15:11:42;11.35;;;3.28;;
58260;SDS011;44058;52.898;6.502;2022-10-16T15:14:12;9.20;;;2.80;;
58260;SDS011;44058;52.898;6.502;2022-10-16T15:16:38;9.38;;;2.38;;
58260;SDS011;44058;52.898;6.502;2022-10-16T15:19:04;11.00;;;3.08;;
58260;SDS011;44058;52.898;6.502;2022-10-16T15:21:31;12.95;;;2.92;;
58260;SDS011;44058;52.898;6.502;2022-10-16T15:23:58;10.85;;;2.45;;
58260;SDS011;44058;52.898;6.502;2022-10-16T15:26:25;7.40;;;2.50;;
58260;SDS011;44058;52.898;6.502;2022-10-16T15:28:52;10.25;;;2.30;;
58260;SDS011;44058;52.898;6.502;2022-10-16T15:31:18;10.82;;;3.17;;
58260;SDS011;44058;52.898;6.502;2022-10-16T15:33:44;9.85;;;4.05;;
58260;SDS011;44058;52.898;6.502;2022-10-16T15:36:16;8.07;;;2.92;;
58260;SDS011;44058;52.898;6.502;2022-10-16T15:38:42;10.43;;;3.47;;
58260;SDS011;44058;52.898;6.502;2022-10-16T15:41:08;10.70;;;4.13;;
58260;SDS011;44058;52.898;6.502;2022-10-16T15:43:33;11.25;;;3.55;;
58260;SDS011;44058;52.898;6.502;2022-10-16T15:46:00;13.27;;;3.78;;
58260;SDS011;44058;52.898;6.502;2022-10-16T15:48:28;11.18;;;3.80;;
58260;SDS011;44058;52.898;6.502;2022-10-16T15:50:55;8.80;;;2.97;;
58260;SDS011;44058;52.898;6.502;2022-10-16T15:53:21;10.80;;;3.30;;
58260;SDS011;44058;52.898;6.502;2022-10-16T15:55:47;10.25;;;3.03;;
58260;SDS011;44058;52.898;6.502;2022-10-16T15:58:13;11.02;;;2.65;;
58260;SDS011;44058;52.898;6.502;2022-10-16T16:00:39;8.07;;;2.40;;
58260;SDS011;44058;52.898;6.502;2022-10-16T16:03:05;11.15;;;3.42;;
58260;SDS011;44058;52.898;6.502;2022-10-16T16:05:31;9.27;;;2.95;;
58260;SDS011;44058;52.898;6.502;2022-10-16T16:07:58;10.55;;;2.63;;
58260;SDS011;44058;52.898;6.502;2022-10-16T16:10:24;8.90;;;2.78;;
58260;SDS011;44058;52.898;6.502;2022-10-16T16:12:50;12.80;;;3.13;;
58260;SDS011;44058;52.898;6.502;2022-10-16T16:15:18;13.70;;;2.97;;
58260;SDS011;44058;52.898;6.502;2022-10-16T16:17:46;10.40;;;2.95;;
58260;SDS011;44058;52.898;6.502;2022-10-16T16:20:12;11.65;;;2.70;;
58260;SDS011;44058;52.898;6.502;2022-10-16T16:22:38;8.90;;;3.17;;
58260;SDS011;44058;52.898;6.502;2022-10-16T16:25:04;10.18;;;2.80;;
58260;SDS011;44058;52.898;6.502;2022-10-16T16:27:30;8.93;;;2.45;;
58260;SDS011;44058;52.898;6.502;2022-10-16T16:29:59;9.38;;;2.78;;
58260;SDS011;44058;52.898;6.502;2022-10-16T16:32:25;8.55;;;2.88;;
58260;SDS011;44058;52.898;6.502;2022-10-16T16:34:51;8.77;;;2.92;;
58260;SDS011;44058;52.898;6.502;2022-10-16T16:37:17;10.60;;;3.38;;
58260;SDS011;44058;52.898;6.502;2022-10-16T16:39:43;9.27;;;2.55;;
58260;SDS011;44058;52.898;6.502;2022-10-16T16:42:08;11.65;;;3.55;;
58260;SDS011;44058;52.898;6.502;2022-10-16T16:44:35;12.73;;;3.30;;
58260;SDS011;44058;52.898;6.502;2022-10-16T16:47:02;8.93;;;2.40;;
58260;SDS011;44058;52.898;6.502;2022-10-16T16:49:28;8.82;;;3.03;;
58260;SDS011;44058;52.898;6.502;2022-10-16T16:51:54;10.88;;;2.80;;
58260;SDS011;44058;52.898;6.502;2022-10-16T16:54:20;10.57;;;2.85;;
58260;SDS011;44058;52.898;6.502;2022-10-16T16:56:46;11.95;;;2.80;;
58260;SDS011;44058;52.898;6.502;2022-10-16T16:59:13;9.07;;;2.42;;